To NAV CANADA Home Page Login to a new session Search on AWWS site Feedback and Comments Disclaimer Vers la page française équivalente Tips FAQ What's new on the site To the Forecasts and Observations / NOTAM section To "File a Flight Plan" website Publications and other links Update of the User's profile FIC Telephone Numbers My Weather Data Folder Route Weather Data Regional Weather Data Local Weather Data To the Forecasts and Observations / NOTAM section
Request Generated 03/23/2017 at 00:14:09 UTC . Weather information available at that time is displayed.

METAR/TAF

HOPE/BC    (show WxCam)

SPECI CYHE 230003Z AUTO 21004KT 9SM -RA BKN060 OVC075 10/08 A2981 RMK
SLP098=
SPECI CYHE 230002Z AUTO 21004KT 9SM BKN060 OVC075 10/08 A2981 RMK
SLP098=
METAR CYHE 230000Z AUTO 20004KT 9SM -RA BKN060 OVC076 10/08 A2981 RMK
PCPN 0.5MM PAST HR SLP097=
SPECI CYHE 222306Z AUTO 28010KT 9SM -RA BKN055 OVC083 11/07 A2980 RMK
SLP094=
METAR CYHE 222300Z AUTO 27010KT 9SM SCT055 BKN065 BKN080 BKN091 11/07
A2980 RMK SLP092=
SPECI CYHE 222247Z AUTO 28009G15KT 9SM FEW034 SCT065 BKN081 11/07
A2979 RMK SLP090=
SPECI CYHE 222213Z AUTO 29006KT 9SM -RA SCT055 BKN071 OVC085 11/07
A2979 RMK SLP089=
METAR CYHE 222200Z AUTO 29005KT 260V320 9SM SCT065 OVC082 11/07 A2979
RMK SLP089=

CYHE - No TAF is issued for this station

Your time UTC time
Weather data provided by Environment Canada and NAV CANADA